NCAR-RAP Real-Time Weather Data

Output produced by METARs form (12 August 2020  18:08 UTC)
found at http://weather.rap.ucar.edu/surface/
 
KGRB 121753Z VRB03KT 10SM CLR 29/16 A3011 RMK AO2 SLP194 T02890161 10289 20167 50008
KGRB 121653Z 00000KT 10SM CLR 28/16 A3011 RMK AO2 SLP195 T02830161
KGRB 121553Z 18004KT 10SM CLR 26/17 A3009 RMK AO2 SLP187 T02610172
KGRB 121453Z 00000KT 10SM CLR 24/17 A3009 RMK AO2 SLP187 T02440167 58010
KGRB 121353Z 00000KT 10SM CLR 22/16 A3011 RMK AO2 SLP193 T02170161
KGRB 121253Z 00000KT 10SM CLR 19/16 A3011 RMK AO2 SLP195 T01890156
KGRB 121153Z 00000KT 10SM CLR 17/14 A3012 RMK AO2 SLP197 T01670144 10167 20128 53019
KGRB 121053Z AUTO 00000KT 10SM CLR 13/12 A3010 RMK AO2 SLP190 T01330122 TSNO
KGRB 120953Z AUTO 00000KT 10SM CLR 13/12 A3008 RMK AO2 SLP183 T01330122 TSNO
KGRB 120853Z AUTO 00000KT 10SM CLR 14/12 A3006 RMK AO2 SLP177 T01390122 51012
KGRB 120753Z AUTO 00000KT 10SM CLR 14/12 A3005 RMK AO2 SLP174 T01390122
KGRB 120653Z AUTO 00000KT 10SM CLR 14/13 A3004 RMK AO2 SLP169 T01440128
KGRB 120553Z AUTO 00000KT 10SM CLR 16/13 A3002 RMK AO2 SLP165 T01610128 10256 20156 402780133 53007
KGRB 120453Z AUTO 20003KT 10SM CLR 17/13 A3001 RMK AO2 SLP160 T01670133
KGRB 120353Z AUTO 17003KT 10SM CLR 16/14 A3000 RMK AO2 SLP158 T01560139
KGRB 120253Z AUTO 00000KT 10SM CLR 17/14 A3000 RMK AO2 SLP157 T01720144 53009
KGRB 120153Z AUTO 21004KT 10SM CLR 21/14 A2999 RMK AO2 SLP154 T02110139
KGRB 120053Z 24004KT 10SM CLR 22/16 A2998 RMK AO2 SLP151 T02170156
KGRB 112353Z 22005KT 10SM CLR 26/14 A2997 RMK AO2 SLP148 T02560139 10278 20256 58001
KGRB 112253Z 25004KT 10SM CLR 27/14 A2998 RMK AO2 SLP149 T02720139
KGRB 112153Z 27008KT 10SM CLR 27/13 A2998 RMK AO2 SLP149 T02720128